Huvudsida
METAR-TAF:

METAR-TAF

Flygplatser :

Rørviks flygplats. Ryum

Rørvik, Norge

latitud: 64-50N, longitud: 011-09E, höjd: 4 m

Aktuellt väderrapport

Denna rapport gjordes för 1 timme och 37 minuter sedan, klockan 08:20 UTC
Vind 17 kt från sydväst
Temperatur 5°C
Fuktighet 93%
Tryck 1005 hPa
Sikt: 7000 m
Få moln på en höjd av 900 ft
Spridda moln på en höjd av 1800 ft, Cumulonimbus.
Spridda moln på en höjd av 4000 ft
skurar i närheten

METAR: ENRM 200820Z 22017KT 9999 7000NE VCSH FEW009 SCT018CB SCT040 05/04 Q1005

Tid: 10:57 (09:57 UTC)

Väderprognos

Denna rapport gjordes för 16 timmar och 57 minuter sedan, klockan 17:00 UTC
Prognos gäller från 19 kl. 18 UTC till 19 kl. 21 UTC
Vind 8 kt från syd/sydost
Sikt 10 km eller mer
Få moln på en höjd av 3000 ft
Brutna moln på en höjd av 4500 ft
lätt regn
Blir
från 19 kl. 18 UTC till 19 kl. 20 UTC
Vind 18 kt från syd/sydost

TAF: ENRM 191700Z 1918/1921 16008KT 9999 -RA FEW030 BKN045 BECMG 1918/1920 16018KT

Aktuella väderrapporter och prognoser från 4000 flygplatser (METAR- och TAF-rapporter).

De tillgängliga stationerna syns som gula och röda prickar på kartan.

För musen över prickarna för att se namnen på stationerna.

Klicka sedan för att få väderrapporter och prognoser.

För att ändra kartan: Klicka på de gröna knapparna med ett svart kors på för att zooma in; den gröna knappen med ett streck på för att zooma ut; eller på de gröna pilarna för angränsande kartor.


METAR-TAF: